createdAt,value
2023-10-05T00:03:00.332Z,6.07
2023-10-05T00:07:01.842Z,5.20
2023-10-05T00:11:07.619Z,5.67
2023-10-05T00:15:09.475Z,4.73
2023-10-05T00:19:13.580Z,4.27
2023-10-05T00:23:15.261Z,4.27
2023-10-05T00:27:16.704Z,5.00
2023-10-05T00:31:27.399Z,4.70
2023-10-05T00:35:30.412Z,5.63
2023-10-05T00:39:32.259Z,6.00
2023-10-05T00:43:33.682Z,5.60
2023-10-05T00:47:35.914Z,5.07
2023-10-05T00:51:37.849Z,4.87
2023-10-05T00:55:40.915Z,4.90
2023-10-05T00:59:45.521Z,5.00
2023-10-05T01:04:07.292Z,4.93
2023-10-05T01:08:16.451Z,5.67
2023-10-05T01:12:20.978Z,4.90
2023-10-05T01:16:23.239Z,4.53
2023-10-05T01:20:26.160Z,4.43
2023-10-05T01:24:28.779Z,5.03
2023-10-05T01:28:30.205Z,4.30
2023-10-05T01:32:34.039Z,5.20
2023-10-05T01:36:35.964Z,5.30
2023-10-05T01:40:37.401Z,5.00
2023-10-05T01:44:41.554Z,4.70
2023-10-05T01:48:43.894Z,5.00
2023-10-05T01:52:57.034Z,4.43
2023-10-05T01:57:02.429Z,4.50
2023-10-05T02:01:04.899Z,5.10
2023-10-05T02:05:08.175Z,4.57
2023-10-05T02:09:15.159Z,4.43
2023-10-05T02:13:17.913Z,4.20
2023-10-05T02:17:20.384Z,4.10
2023-10-05T02:21:31.028Z,4.90
2023-10-05T02:25:35.107Z,3.73
2023-10-05T02:29:41.049Z,3.87
2023-10-05T02:33:44.246Z,4.20
2023-10-05T02:37:49.910Z,3.97
2023-10-05T02:41:57.439Z,3.20
2023-10-05T02:46:11.065Z,3.87
2023-10-05T02:50:12.998Z,3.27
2023-10-05T02:54:15.462Z,3.10
2023-10-05T02:58:17.520Z,3.53
2023-10-05T03:02:19.482Z,3.30
2023-10-05T03:06:23.812Z,3.60
2023-10-05T03:10:25.562Z,3.50
2023-10-05T03:14:28.423Z,3.60
2023-10-05T03:18:29.748Z,3.33
2023-10-05T03:22:31.118Z,3.27
2023-10-05T03:26:32.520Z,2.87
2023-10-05T03:30:36.616Z,3.07
2023-10-05T03:34:38.330Z,2.90
2023-10-05T03:38:40.764Z,2.83
2023-10-05T03:42:43.300Z,2.97
2023-10-05T03:46:48.149Z,3.33
2023-10-05T03:50:49.525Z,3.10
2023-10-05T03:54:50.946Z,3.57
2023-10-05T03:58:53.709Z,3.40
2023-10-05T04:02:55.546Z,3.50
2023-10-05T04:06:59.509Z,3.43
2023-10-05T04:11:00.916Z,2.90
2023-10-05T04:15:02.632Z,2.67
2023-10-05T04:19:05.855Z,3.13
2023-10-05T04:23:08.535Z,2.97
2023-10-05T04:27:11.788Z,3.20
2023-10-05T04:31:15.286Z,3.20
2023-10-05T04:35:23.867Z,2.60
2023-10-05T04:39:30.800Z,2.97
2023-10-05T04:43:32.274Z,3.30
2023-10-05T04:47:34.260Z,2.77
2023-10-05T04:51:39.502Z,3.00
2023-10-05T04:55:46.109Z,3.60
2023-10-05T04:59:59.997Z,3.00
2023-10-05T05:04:28.307Z,2.80
2023-10-05T05:08:31.327Z,2.43
2023-10-05T05:12:32.811Z,2.67
2023-10-05T05:16:34.764Z,2.87
2023-10-05T05:20:36.183Z,2.87
2023-10-05T05:24:38.563Z,2.80
2023-10-05T05:28:40.226Z,2.57
2023-10-05T05:32:45.155Z,2.40
2023-10-05T05:36:46.575Z,2.80
2023-10-05T05:40:50.512Z,2.53
2023-10-05T05:44:53.614Z,2.90
2023-10-05T05:48:55.015Z,2.73
2023-10-05T05:52:57.850Z,2.50
2023-10-05T05:56:59.266Z,2.80
2023-10-05T06:01:01.070Z,2.63
2023-10-05T06:05:02.861Z,2.70
2023-10-05T06:09:08.424Z,2.63
2023-10-05T06:13:13.414Z,2.43
2023-10-05T06:17:14.860Z,2.77
2023-10-05T06:21:16.661Z,2.93
2023-10-05T06:25:18.905Z,3.23
2023-10-05T06:29:20.280Z,2.60
2023-10-05T06:33:21.858Z,2.60
2023-10-05T06:37:23.243Z,2.70
2023-10-05T06:41:24.607Z,3.10
2023-10-05T06:45:26.050Z,3.13
2023-10-05T06:49:28.476Z,2.50
2023-10-05T06:53:29.904Z,2.50
2023-10-05T06:57:31.284Z,2.80
2023-10-05T07:01:36.065Z,2.75
2023-10-05T07:05:37.722Z,2.80
2023-10-05T07:09:39.171Z,2.40
2023-10-05T07:13:40.542Z,2.45
2023-10-05T07:17:42.571Z,2.92
2023-10-05T07:21:44.070Z,2.88
2023-10-05T07:25:45.579Z,2.20
2023-10-05T07:29:47.118Z,2.63
2023-10-05T07:33:48.771Z,2.50
2023-10-05T07:37:50.131Z,2.72
2023-10-05T07:41:51.540Z,2.97
2023-10-05T07:45:52.934Z,2.83
2023-10-05T07:49:55.148Z,3.33
2023-10-05T07:53:56.567Z,24.60
2023-10-05T07:57:58.342Z,6.75
2023-10-05T08:01:59.873Z,2.40
2023-10-05T08:06:02.497Z,2.40
2023-10-05T08:10:04.433Z,2.40
2023-10-05T08:14:05.974Z,2.40
2023-10-05T08:18:07.598Z,2.97
2023-10-05T08:22:10.189Z,2.30
2023-10-05T08:26:11.784Z,2.30
2023-10-05T08:30:13.688Z,2.47
2023-10-05T08:34:24.034Z,3.33
2023-10-05T08:38:25.642Z,2.60
2023-10-05T08:42:28.943Z,2.10
2023-10-05T08:46:33.635Z,2.20
2023-10-05T08:50:36.291Z,2.25
2023-10-05T08:54:39.343Z,3.00
2023-10-05T08:58:48.680Z,2.80
2023-10-05T09:02:51.207Z,2.15
2023-10-05T09:06:56.384Z,2.58
2023-10-05T09:11:00.421Z,2.60
2023-10-05T09:15:20.452Z,2.85
2023-10-05T09:19:30.895Z,2.70
2023-10-05T09:23:32.721Z,2.10
2023-10-05T09:27:52.973Z,2.40
2023-10-05T09:31:59.245Z,2.33
2023-10-05T09:36:17.488Z,2.22
2023-10-05T09:40:19.206Z,2.13
2023-10-05T09:44:23.229Z,2.78
2023-10-05T09:48:25.944Z,2.35
2023-10-05T09:52:35.971Z,2.47
2023-10-05T09:56:44.648Z,2.70
2023-10-05T10:00:46.735Z,2.50
2023-10-05T10:04:49.094Z,2.83
2023-10-05T10:08:55.120Z,2.70
2023-10-05T10:12:57.297Z,2.10
2023-10-05T10:17:02.305Z,2.20
2023-10-05T10:21:09.652Z,2.50
2023-10-05T10:25:31.573Z,2.33
2023-10-05T10:29:46.010Z,2.50
2023-10-05T10:33:56.326Z,2.53
2023-10-05T10:38:00.250Z,3.72
2023-10-05T10:42:07.299Z,6.35
2023-10-05T10:46:15.664Z,3.40
2023-10-05T10:50:23.458Z,1.83
2023-10-05T10:54:25.518Z,2.50
2023-10-05T10:58:31.573Z,1.98
2023-10-05T11:02:39.616Z,2.20
2023-10-05T11:06:41.936Z,5.20
2023-10-05T11:10:44.001Z,2.63
2023-10-05T11:14:46.476Z,2.75
2023-10-05T11:19:07.617Z,5.07
2023-10-05T11:23:13.942Z,4.00
2023-10-05T11:27:17.056Z,3.03
2023-10-05T11:31:59.109Z,2.58
2023-10-05T11:35:50.818Z,2.42
2023-10-05T11:40:00.083Z,2.10
2023-10-05T11:44:03.869Z,2.40
2023-10-05T11:48:13.651Z,2.28
2023-10-05T11:52:17.910Z,2.42
2023-10-05T11:56:19.487Z,2.42
2023-10-05T12:00:21.276Z,2.17
2023-10-05T12:04:25.073Z,2.42
2023-10-05T12:08:26.583Z,1.83
2023-10-05T12:12:27.936Z,2.13
2023-10-05T12:16:34.254Z,1.92
2023-10-05T12:20:35.941Z,1.95
2023-10-05T12:24:38.627Z,2.45
2023-10-05T12:28:42.276Z,2.10
2023-10-05T12:32:43.694Z,2.50
2023-10-05T12:36:49.917Z,1.85
2023-10-05T12:40:51.356Z,2.00
2023-10-05T12:44:52.752Z,2.42
2023-10-05T12:48:54.169Z,2.40
2023-10-05T12:52:57.224Z,2.20
2023-10-05T12:57:17.755Z,2.22
2023-10-05T13:01:21.424Z,2.20
2023-10-05T13:05:31.684Z,2.20
2023-10-05T13:09:36.202Z,2.38
2023-10-05T13:13:37.737Z,2.40
2023-10-05T13:17:39.728Z,2.22
2023-10-05T13:21:43.840Z,2.20
2023-10-05T13:25:45.704Z,2.33
2023-10-05T13:29:50.098Z,2.17
2023-10-05T13:33:55.816Z,2.63
2023-10-05T13:37:59.071Z,2.25
2023-10-05T13:42:10.745Z,2.00
2023-10-05T13:46:20.304Z,2.00
2023-10-05T13:50:23.431Z,2.22
2023-10-05T13:54:24.841Z,4.32
2023-10-05T13:58:26.227Z,2.13
2023-10-05T14:02:28.278Z,2.40
2023-10-05T14:06:30.673Z,2.00
2023-10-05T14:10:32.320Z,2.03
2023-10-05T14:14:33.786Z,2.10
2023-10-05T14:18:35.242Z,2.50
2023-10-05T14:22:36.722Z,2.08
2023-10-05T14:26:38.268Z,2.60
2023-10-05T14:30:41.375Z,2.97
2023-10-05T14:34:43.282Z,1.88
2023-10-05T14:38:44.723Z,2.55
2023-10-05T14:42:48.725Z,2.30
2023-10-05T14:46:53.206Z,2.08
2023-10-05T14:50:54.614Z,1.70
2023-10-05T14:54:56.040Z,1.90
2023-10-05T14:58:57.934Z,2.53
2023-10-05T15:03:00.623Z,2.08
2023-10-05T15:07:02.059Z,2.72
2023-10-05T15:11:06.927Z,2.05
2023-10-05T15:15:11.074Z,2.60
2023-10-05T15:19:12.507Z,2.20
2023-10-05T15:23:14.434Z,1.98
2023-10-05T15:27:16.678Z,2.28
2023-10-05T15:31:19.364Z,2.30
2023-10-05T15:35:21.317Z,2.20
2023-10-05T15:39:22.660Z,4.00
2023-10-05T15:43:24.654Z,2.20
2023-10-05T15:47:29.558Z,2.10
2023-10-05T15:51:32.352Z,4.88
2023-10-05T15:55:34.689Z,3.90
2023-10-05T15:59:36.124Z,2.22
2023-10-05T16:03:37.595Z,2.10
2023-10-05T16:07:40.460Z,2.47
2023-10-05T16:11:42.335Z,2.40
2023-10-05T16:15:43.652Z,2.47
2023-10-05T16:19:45.179Z,2.67
2023-10-05T16:23:46.537Z,2.70
2023-10-05T16:27:49.413Z,3.25
2023-10-05T16:31:52.958Z,2.67
2023-10-05T16:35:55.632Z,3.83
2023-10-05T16:39:59.945Z,3.42
2023-10-05T16:44:01.338Z,2.50
2023-10-05T16:48:02.763Z,2.00
2023-10-05T16:52:04.338Z,2.60
2023-10-05T16:56:05.720Z,2.55
2023-10-05T17:00:23.809Z,3.15
2023-10-05T17:04:25.440Z,2.40
2023-10-05T17:08:28.342Z,2.53
2023-10-05T17:12:29.809Z,2.70
2023-10-05T17:16:31.290Z,2.90
2023-10-05T17:20:33.380Z,3.60
2023-10-05T17:24:34.857Z,4.60
2023-10-05T17:28:36.206Z,3.10
2023-10-05T17:32:39.626Z,3.67
2023-10-05T17:36:41.890Z,6.30
2023-10-05T17:40:56.661Z,5.03
2023-10-05T17:44:58.221Z,5.07
2023-10-05T17:49:00.311Z,9.07
2023-10-05T17:53:01.711Z,6.95
2023-10-05T17:57:05.361Z,5.43
2023-10-05T18:01:06.718Z,6.57
2023-10-05T18:05:10.442Z,6.22
2023-10-05T18:09:12.281Z,5.47
2023-10-05T18:13:13.638Z,5.43
2023-10-05T18:17:16.200Z,5.40
2023-10-05T18:21:18.343Z,6.35
2023-10-05T18:25:21.885Z,6.85
2023-10-05T18:29:23.273Z,4.72
2023-10-05T18:33:24.751Z,6.13
2023-10-05T18:37:28.006Z,6.53
2023-10-05T18:41:29.586Z,7.53
2023-10-05T18:45:31.212Z,6.50
2023-10-05T18:49:32.846Z,6.00
2023-10-05T18:53:38.523Z,6.53
2023-10-05T18:57:40.378Z,5.63
2023-10-05T19:01:42.646Z,5.25
2023-10-05T19:05:44.122Z,5.28
2023-10-05T19:09:45.491Z,5.22
2023-10-05T19:13:47.040Z,5.30
2023-10-05T19:17:48.469Z,4.68
2023-10-05T19:21:49.931Z,4.32
2023-10-05T19:25:59.456Z,5.53
2023-10-05T19:30:01.294Z,4.70
2023-10-05T19:34:02.618Z,4.95
2023-10-05T19:38:04.089Z,5.63
2023-10-05T19:42:07.389Z,4.87
2023-10-05T19:46:08.785Z,5.50
2023-10-05T19:50:11.576Z,5.73
2023-10-05T19:54:15.049Z,5.80
2023-10-05T19:58:19.163Z,6.23
2023-10-05T20:02:20.787Z,6.57
2023-10-05T20:06:22.209Z,6.70
2023-10-05T20:10:29.363Z,7.23
2023-10-05T20:14:31.040Z,6.37
2023-10-05T20:18:37.516Z,5.33
2023-10-05T20:22:39.950Z,4.53
2023-10-05T20:26:41.489Z,5.47
2023-10-05T20:30:42.912Z,6.07
2023-10-05T20:34:57.545Z,7.73
2023-10-05T20:38:58.953Z,7.63
2023-10-05T20:43:00.730Z,8.10
2023-10-05T20:47:02.240Z,10.13
2023-10-05T20:51:06.988Z,9.60
2023-10-05T20:55:08.956Z,10.00
2023-10-05T20:59:10.294Z,7.60
2023-10-05T21:03:14.719Z,9.13
2023-10-05T21:07:16.339Z,6.87
2023-10-05T21:11:20.903Z,5.80
2023-10-05T21:15:23.458Z,6.07
2023-10-05T21:19:24.841Z,6.60
2023-10-05T21:23:26.288Z,5.23
2023-10-05T21:27:28.490Z,5.20
2023-10-05T21:31:29.864Z,4.83
2023-10-05T21:35:31.233Z,4.73
2023-10-05T21:39:33.675Z,4.57
2023-10-05T21:43:35.085Z,5.37
2023-10-05T21:47:36.504Z,4.20
2023-10-05T21:51:37.847Z,4.50
2023-10-05T21:55:39.333Z,4.90
2023-10-05T21:59:40.664Z,4.70
2023-10-05T22:03:42.261Z,4.47
2023-10-05T22:07:45.967Z,3.73
2023-10-05T22:11:47.423Z,3.67
2023-10-05T22:15:50.266Z,4.70
2023-10-05T22:19:51.666Z,4.47
2023-10-05T22:23:53.012Z,4.20
2023-10-05T22:27:54.514Z,4.17
2023-10-05T22:31:55.907Z,4.10
2023-10-05T22:35:57.701Z,4.20
2023-10-05T22:39:59.042Z,3.63
2023-10-05T22:44:00.412Z,4.10
2023-10-05T22:48:02.106Z,4.30
2023-10-05T22:52:03.796Z,6.27
2023-10-05T22:56:05.309Z,5.80
2023-10-05T23:00:07.294Z,5.63
2023-10-05T23:04:08.957Z,5.97
2023-10-05T23:08:12.651Z,5.90
2023-10-05T23:12:14.676Z,5.83
2023-10-05T23:16:18.763Z,6.33
2023-10-05T23:20:26.167Z,7.77
2023-10-05T23:24:28.455Z,6.40
2023-10-05T23:28:29.829Z,5.87
2023-10-05T23:32:31.367Z,6.20
2023-10-05T23:36:34.707Z,6.53
2023-10-05T23:40:37.116Z,6.40
2023-10-05T23:44:39.923Z,6.10
2023-10-05T23:48:41.688Z,6.10
2023-10-05T23:52:45.363Z,5.97
2023-10-05T23:56:46.791Z,6.23
